sensor_id;sensor_type;location;lat;lon;timestamp;P1;durP1;ratioP1;P2;durP2;ratioP2
23101;SDS011;11720;51.214;22.574;2023-02-21T00:02:19;2.90;;;1.90;;
23101;SDS011;11720;51.214;22.574;2023-02-21T00:05:03;2.20;;;1.70;;
23101;SDS011;11720;51.214;22.574;2023-02-21T00:07:47;1.47;;;1.17;;
23101;SDS011;11720;51.214;22.574;2023-02-21T00:10:31;1.43;;;1.33;;
23101;SDS011;11720;51.214;22.574;2023-02-21T00:13:15;2.23;;;2.03;;
23101;SDS011;11720;51.214;22.574;2023-02-21T00:15:59;2.57;;;1.70;;
23101;SDS011;11720;51.214;22.574;2023-02-21T00:18:43;2.17;;;1.73;;
23101;SDS011;11720;51.214;22.574;2023-02-21T00:21:28;4.03;;;2.43;;
23101;SDS011;11720;51.214;22.574;2023-02-21T00:24:17;2.53;;;1.80;;
23101;SDS011;11720;51.214;22.574;2023-02-21T00:27:02;2.17;;;1.97;;
23101;SDS011;11720;51.214;22.574;2023-02-21T00:29:47;3.23;;;2.03;;
23101;SDS011;11720;51.214;22.574;2023-02-21T00:32:32;3.20;;;2.47;;
23101;SDS011;11720;51.214;22.574;2023-02-21T00:35:16;1.90;;;1.57;;
23101;SDS011;11720;51.214;22.574;2023-02-21T00:38:01;1.47;;;1.37;;
23101;SDS011;11720;51.214;22.574;2023-02-21T00:40:45;3.27;;;1.60;;
23101;SDS011;11720;51.214;22.574;2023-02-21T00:43:30;1.70;;;1.60;;
23101;SDS011;11720;51.214;22.574;2023-02-21T00:46:16;1.30;;;1.20;;
23101;SDS011;11720;51.214;22.574;2023-02-21T00:49:01;1.37;;;1.13;;
23101;SDS011;11720;51.214;22.574;2023-02-21T00:51:45;1.67;;;1.40;;
23101;SDS011;11720;51.214;22.574;2023-02-21T00:54:30;1.20;;;1.10;;
23101;SDS011;11720;51.214;22.574;2023-02-21T00:57:14;1.47;;;1.23;;
23101;SDS011;11720;51.214;22.574;2023-02-21T00:59:58;4.53;;;1.40;;
23101;SDS011;11720;51.214;22.574;2023-02-21T01:02:43;1.27;;;1.10;;
23101;SDS011;11720;51.214;22.574;2023-02-21T01:05:27;3.57;;;1.27;;
23101;SDS011;11720;51.214;22.574;2023-02-21T01:08:11;2.47;;;1.70;;
23101;SDS011;11720;51.214;22.574;2023-02-21T01:10:56;2.00;;;1.30;;
23101;SDS011;11720;51.214;22.574;2023-02-21T01:13:40;1.83;;;1.40;;
23101;SDS011;11720;51.214;22.574;2023-02-21T01:16:26;5.13;;;1.03;;
23101;SDS011;11720;51.214;22.574;2023-02-21T01:19:11;4.53;;;1.67;;
23101;SDS011;11720;51.214;22.574;2023-02-21T01:21:56;1.47;;;1.37;;
23101;SDS011;11720;51.214;22.574;2023-02-21T01:24:40;1.53;;;1.20;;
23101;SDS011;11720;51.214;22.574;2023-02-21T01:27:24;2.03;;;1.83;;
23101;SDS011;11720;51.214;22.574;2023-02-21T01:30:07;2.63;;;1.70;;
23101;SDS011;11720;51.214;22.574;2023-02-21T01:32:52;1.13;;;1.13;;
23101;SDS011;11720;51.214;22.574;2023-02-21T01:35:36;2.63;;;1.77;;
23101;SDS011;11720;51.214;22.574;2023-02-21T01:38:20;3.43;;;1.37;;
23101;SDS011;11720;51.214;22.574;2023-02-21T01:41:04;2.93;;;1.83;;
23101;SDS011;11720;51.214;22.574;2023-02-21T01:43:58;1.43;;;1.33;;
23101;SDS011;11720;51.214;22.574;2023-02-21T01:46:47;1.43;;;1.27;;
23101;SDS011;11720;51.214;22.574;2023-02-21T01:49:32;1.53;;;1.10;;
23101;SDS011;11720;51.214;22.574;2023-02-21T01:52:18;1.10;;;1.00;;
23101;SDS011;11720;51.214;22.574;2023-02-21T01:55:03;1.10;;;1.00;;
23101;SDS011;11720;51.214;22.574;2023-02-21T01:57:49;1.13;;;1.03;;
23101;SDS011;11720;51.214;22.574;2023-02-21T02:00:34;2.13;;;1.83;;
23101;SDS011;11720;51.214;22.574;2023-02-21T02:03:19;1.50;;;1.07;;
23101;SDS011;11720;51.214;22.574;2023-02-21T02:06:06;1.50;;;1.30;;
23101;SDS011;11720;51.214;22.574;2023-02-21T02:08:51;0.90;;;0.90;;
23101;SDS011;11720;51.214;22.574;2023-02-21T02:17:06;1.10;;;1.00;;
23101;SDS011;11720;51.214;22.574;2023-02-21T02:28:41;1.60;;;1.13;;
23101;SDS011;11720;51.214;22.574;2023-02-21T02:42:46;1.50;;;1.17;;
23101;SDS011;11720;51.214;22.574;2023-02-21T02:48:16;1.03;;;0.90;;
23101;SDS011;11720;51.214;22.574;2023-02-21T02:50:48;1.10;;;0.90;;
23101;SDS011;11720;51.214;22.574;2023-02-21T02:53:18;1.33;;;1.20;;
23101;SDS011;11720;51.214;22.574;2023-02-21T02:55:56;0.80;;;0.80;;
23101;SDS011;11720;51.214;22.574;2023-02-21T02:58:25;0.73;;;0.73;;
23101;SDS011;11720;51.214;22.574;2023-02-21T03:01:08;0.70;;;0.70;;
23101;SDS011;11720;51.214;22.574;2023-02-21T03:09:01;1.83;;;1.30;;
23101;SDS011;11720;51.214;22.574;2023-02-21T03:11:31;0.73;;;0.70;;
23101;SDS011;11720;51.214;22.574;2023-02-21T03:14:08;1.13;;;0.90;;
23101;SDS011;11720;51.214;22.574;2023-02-21T03:19:06;2.27;;;1.20;;
23101;SDS011;11720;51.214;22.574;2023-02-21T03:21:48;1.00;;;1.00;;
23101;SDS011;11720;51.214;22.574;2023-02-21T03:24:20;0.90;;;0.90;;
23101;SDS011;11720;51.214;22.574;2023-02-21T03:26:48;1.07;;;0.97;;
23101;SDS011;11720;51.214;22.574;2023-02-21T03:29:17;0.87;;;0.80;;
23101;SDS011;11720;51.214;22.574;2023-02-21T03:31:45;2.40;;;1.10;;
23101;SDS011;11720;51.214;22.574;2023-02-21T03:34:16;0.90;;;0.87;;
23101;SDS011;11720;51.214;22.574;2023-02-21T03:36:42;1.50;;;1.00;;
23101;SDS011;11720;51.214;22.574;2023-02-21T03:39:08;1.37;;;1.10;;
23101;SDS011;11720;51.214;22.574;2023-02-21T03:41:34;2.43;;;1.27;;
23101;SDS011;11720;51.214;22.574;2023-02-21T03:44:00;1.10;;;1.00;;
23101;SDS011;11720;51.214;22.574;2023-02-21T03:46:25;1.00;;;0.90;;
23101;SDS011;11720;51.214;22.574;2023-02-21T03:48:51;0.97;;;0.97;;
23101;SDS011;11720;51.214;22.574;2023-02-21T03:51:17;0.97;;;0.97;;
23101;SDS011;11720;51.214;22.574;2023-02-21T03:53:42;0.90;;;0.90;;
23101;SDS011;11720;51.214;22.574;2023-02-21T03:56:08;9.23;;;1.37;;
23101;SDS011;11720;51.214;22.574;2023-02-21T03:58:34;1.63;;;1.53;;
23101;SDS011;11720;51.214;22.574;2023-02-21T04:00:59;1.13;;;1.03;;
23101;SDS011;11720;51.214;22.574;2023-02-21T04:03:25;3.33;;;1.00;;
23101;SDS011;11720;51.214;22.574;2023-02-21T04:05:52;0.83;;;0.70;;
23101;SDS011;11720;51.214;22.574;2023-02-21T04:08:17;1.80;;;1.17;;
23101;SDS011;11720;51.214;22.574;2023-02-21T04:10:43;0.90;;;0.90;;
23101;SDS011;11720;51.214;22.574;2023-02-21T04:13:09;3.00;;;0.90;;
23101;SDS011;11720;51.214;22.574;2023-02-21T04:15:34;0.97;;;0.97;;
23101;SDS011;11720;51.214;22.574;2023-02-21T04:18:00;1.03;;;1.03;;
23101;SDS011;11720;51.214;22.574;2023-02-21T04:20:26;1.17;;;1.13;;
23101;SDS011;11720;51.214;22.574;2023-02-21T04:22:51;0.70;;;0.70;;
23101;SDS011;11720;51.214;22.574;2023-02-21T04:25:17;1.83;;;1.30;;
23101;SDS011;11720;51.214;22.574;2023-02-21T04:27:43;0.73;;;0.73;;
23101;SDS011;11720;51.214;22.574;2023-02-21T04:30:08;1.07;;;1.00;;
23101;SDS011;11720;51.214;22.574;2023-02-21T04:32:35;0.90;;;0.90;;
23101;SDS011;11720;51.214;22.574;2023-02-21T04:35:00;2.33;;;0.97;;
23101;SDS011;11720;51.214;22.574;2023-02-21T04:37:26;0.80;;;0.80;;
23101;SDS011;11720;51.214;22.574;2023-02-21T04:39:51;1.03;;;0.90;;
23101;SDS011;11720;51.214;22.574;2023-02-21T04:42:17;1.17;;;1.03;;
23101;SDS011;11720;51.214;22.574;2023-02-21T04:44:43;0.90;;;0.90;;
23101;SDS011;11720;51.214;22.574;2023-02-21T04:47:09;1.23;;;1.03;;
23101;SDS011;11720;51.214;22.574;2023-02-21T04:49:34;0.87;;;0.87;;
23101;SDS011;11720;51.214;22.574;2023-02-21T04:52:00;1.07;;;0.80;;
23101;SDS011;11720;51.214;22.574;2023-02-21T04:54:26;0.73;;;0.73;;
23101;SDS011;11720;51.214;22.574;2023-02-21T04:56:51;0.77;;;0.77;;
23101;SDS011;11720;51.214;22.574;2023-02-21T04:59:17;0.60;;;0.60;;
23101;SDS011;11720;51.214;22.574;2023-02-21T05:01:43;0.73;;;0.73;;
23101;SDS011;11720;51.214;22.574;2023-02-21T05:04:11;1.00;;;1.00;;
23101;SDS011;11720;51.214;22.574;2023-02-21T05:06:37;0.77;;;0.77;;
23101;SDS011;11720;51.214;22.574;2023-02-21T05:09:03;0.60;;;0.60;;
23101;SDS011;11720;51.214;22.574;2023-02-21T05:11:31;0.60;;;0.60;;
23101;SDS011;11720;51.214;22.574;2023-02-21T05:13:58;0.70;;;0.70;;
23101;SDS011;11720;51.214;22.574;2023-02-21T05:16:24;0.70;;;0.70;;
23101;SDS011;11720;51.214;22.574;2023-02-21T05:18:50;0.70;;;0.70;;
23101;SDS011;11720;51.214;22.574;2023-02-21T05:21:17;1.03;;;0.90;;
23101;SDS011;11720;51.214;22.574;2023-02-21T05:23:44;0.60;;;0.60;;
23101;SDS011;11720;51.214;22.574;2023-02-21T05:26:20;1.53;;;0.60;;
23101;SDS011;11720;51.214;22.574;2023-02-21T05:28:50;3.03;;;0.70;;
23101;SDS011;11720;51.214;22.574;2023-02-21T05:31:16;0.57;;;0.57;;
23101;SDS011;11720;51.214;22.574;2023-02-21T05:33:43;1.37;;;0.67;;
23101;SDS011;11720;51.214;22.574;2023-02-21T05:36:09;0.67;;;0.67;;
23101;SDS011;11720;51.214;22.574;2023-02-21T05:38:42;0.90;;;0.90;;
23101;SDS011;11720;51.214;22.574;2023-02-21T05:41:13;0.70;;;0.70;;
23101;SDS011;11720;51.214;22.574;2023-02-21T05:43:41;1.17;;;1.13;;
23101;SDS011;11720;51.214;22.574;2023-02-21T05:46:14;0.77;;;0.70;;
23101;SDS011;11720;51.214;22.574;2023-02-21T05:48:42;3.20;;;0.80;;
23101;SDS011;11720;51.214;22.574;2023-02-21T05:51:08;1.17;;;0.70;;
23101;SDS011;11720;51.214;22.574;2023-02-21T05:53:33;0.50;;;0.50;;
23101;SDS011;11720;51.214;22.574;2023-02-21T05:55:59;0.80;;;0.80;;
23101;SDS011;11720;51.214;22.574;2023-02-21T05:58:25;2.13;;;0.80;;
23101;SDS011;11720;51.214;22.574;2023-02-21T06:00:50;0.73;;;0.73;;
23101;SDS011;11720;51.214;22.574;2023-02-21T06:03:17;0.80;;;0.70;;
23101;SDS011;11720;51.214;22.574;2023-02-21T06:05:43;0.83;;;0.77;;
23101;SDS011;11720;51.214;22.574;2023-02-21T06:08:08;0.67;;;0.67;;
23101;SDS011;11720;51.214;22.574;2023-02-21T06:10:34;0.60;;;0.60;;
23101;SDS011;11720;51.214;22.574;2023-02-21T06:13:00;1.23;;;0.80;;
23101;SDS011;11720;51.214;22.574;2023-02-21T06:15:25;0.70;;;0.70;;
23101;SDS011;11720;51.214;22.574;2023-02-21T06:17:51;0.60;;;0.60;;
23101;SDS011;11720;51.214;22.574;2023-02-21T06:20:17;0.70;;;0.70;;
23101;SDS011;11720;51.214;22.574;2023-02-21T06:22:43;1.23;;;0.93;;
23101;SDS011;11720;51.214;22.574;2023-02-21T06:25:09;1.83;;;0.70;;
23101;SDS011;11720;51.214;22.574;2023-02-21T06:27:35;0.93;;;0.90;;
23101;SDS011;11720;51.214;22.574;2023-02-21T06:30:02;0.70;;;0.70;;
23101;SDS011;11720;51.214;22.574;2023-02-21T06:32:28;0.70;;;0.70;;
23101;SDS011;11720;51.214;22.574;2023-02-21T06:34:54;1.20;;;1.10;;
23101;SDS011;11720;51.214;22.574;2023-02-21T06:37:19;0.57;;;0.57;;
23101;SDS011;11720;51.214;22.574;2023-02-21T06:39:45;0.53;;;0.53;;
23101;SDS011;11720;51.214;22.574;2023-02-21T06:42:14;0.63;;;0.63;;
23101;SDS011;11720;51.214;22.574;2023-02-21T06:44:44;0.60;;;0.60;;
23101;SDS011;11720;51.214;22.574;2023-02-21T06:47:11;0.60;;;0.60;;
23101;SDS011;11720;51.214;22.574;2023-02-21T06:49:37;0.70;;;0.70;;
23101;SDS011;11720;51.214;22.574;2023-02-21T06:52:02;2.23;;;1.37;;
23101;SDS011;11720;51.214;22.574;2023-02-21T06:54:28;2.00;;;1.37;;
23101;SDS011;11720;51.214;22.574;2023-02-21T06:56:55;2.70;;;1.30;;
23101;SDS011;11720;51.214;22.574;2023-02-21T06:59:21;1.87;;;1.10;;
23101;SDS011;11720;51.214;22.574;2023-02-21T07:01:47;1.40;;;0.87;;
23101;SDS011;11720;51.214;22.574;2023-02-21T07:04:12;1.30;;;1.07;;
23101;SDS011;11720;51.214;22.574;2023-02-21T07:06:38;1.53;;;1.43;;
23101;SDS011;11720;51.214;22.574;2023-02-21T07:09:04;1.43;;;1.30;;
23101;SDS011;11720;51.214;22.574;2023-02-21T07:11:30;1.20;;;1.10;;
23101;SDS011;11720;51.214;22.574;2023-02-21T07:13:57;2.83;;;1.23;;
23101;SDS011;11720;51.214;22.574;2023-02-21T07:16:23;5.50;;;1.30;;
23101;SDS011;11720;51.214;22.574;2023-02-21T07:18:49;1.90;;;1.27;;
23101;SDS011;11720;51.214;22.574;2023-02-21T07:21:15;2.27;;;1.13;;
23101;SDS011;11720;51.214;22.574;2023-02-21T07:23:42;2.27;;;1.37;;
23101;SDS011;11720;51.214;22.574;2023-02-21T07:26:09;6.93;;;1.23;;
23101;SDS011;11720;51.214;22.574;2023-02-21T07:28:35;1.87;;;1.30;;
23101;SDS011;11720;51.214;22.574;2023-02-21T07:31:01;1.23;;;1.03;;
23101;SDS011;11720;51.214;22.574;2023-02-21T07:33:27;1.20;;;0.93;;
23101;SDS011;11720;51.214;22.574;2023-02-21T07:35:53;2.17;;;0.93;;
23101;SDS011;11720;51.214;22.574;2023-02-21T07:38:29;1.43;;;1.33;;
23101;SDS011;11720;51.214;22.574;2023-02-21T07:40:56;3.30;;;1.07;;
23101;SDS011;11720;51.214;22.574;2023-02-21T07:43:24;1.47;;;0.93;;
23101;SDS011;11720;51.214;22.574;2023-02-21T07:45:50;1.53;;;0.73;;
23101;SDS011;11720;51.214;22.574;2023-02-21T07:48:16;0.73;;;0.73;;
23101;SDS011;11720;51.214;22.574;2023-02-21T07:50:42;1.50;;;1.40;;
23101;SDS011;11720;51.214;22.574;2023-02-21T07:53:09;1.63;;;1.37;;
23101;SDS011;11720;51.214;22.574;2023-02-21T07:55:35;0.60;;;0.60;;
23101;SDS011;11720;51.214;22.574;2023-02-21T07:58:01;1.30;;;0.80;;
23101;SDS011;11720;51.214;22.574;2023-02-21T08:00:27;1.27;;;0.60;;
23101;SDS011;11720;51.214;22.574;2023-02-21T08:02:53;0.73;;;0.73;;
23101;SDS011;11720;51.214;22.574;2023-02-21T08:05:19;1.60;;;0.93;;
23101;SDS011;11720;51.214;22.574;2023-02-21T08:07:45;5.57;;;1.10;;
23101;SDS011;11720;51.214;22.574;2023-02-21T08:10:12;5.60;;;1.27;;
23101;SDS011;11720;51.214;22.574;2023-02-21T08:12:43;1.37;;;0.80;;
23101;SDS011;11720;51.214;22.574;2023-02-21T08:15:09;2.10;;;0.80;;
23101;SDS011;11720;51.214;22.574;2023-02-21T08:17:34;1.70;;;0.70;;
23101;SDS011;11720;51.214;22.574;2023-02-21T08:20:00;0.60;;;0.60;;
23101;SDS011;11720;51.214;22.574;2023-02-21T08:22:26;3.23;;;1.00;;
23101;SDS011;11720;51.214;22.574;2023-02-21T08:24:51;1.50;;;1.27;;
23101;SDS011;11720;51.214;22.574;2023-02-21T08:27:17;1.07;;;0.97;;
23101;SDS011;11720;51.214;22.574;2023-02-21T08:29:43;0.90;;;0.90;;
23101;SDS011;11720;51.214;22.574;2023-02-21T08:32:09;1.27;;;0.63;;
23101;SDS011;11720;51.214;22.574;2023-02-21T08:34:35;0.60;;;0.60;;
23101;SDS011;11720;51.214;22.574;2023-02-21T08:37:00;2.47;;;1.10;;
23101;SDS011;11720;51.214;22.574;2023-02-21T08:39:29;6.37;;;1.13;;
23101;SDS011;11720;51.214;22.574;2023-02-21T08:41:55;1.10;;;0.70;;
23101;SDS011;11720;51.214;22.574;2023-02-21T08:44:21;0.97;;;0.97;;
23101;SDS011;11720;51.214;22.574;2023-02-21T08:46:47;2.93;;;0.97;;
23101;SDS011;11720;51.214;22.574;2023-02-21T08:49:13;0.97;;;0.83;;
23101;SDS011;11720;51.214;22.574;2023-02-21T08:51:39;0.80;;;0.67;;
23101;SDS011;11720;51.214;22.574;2023-02-21T08:54:05;1.23;;;0.80;;
23101;SDS011;11720;51.214;22.574;2023-02-21T08:56:31;1.00;;;0.50;;
23101;SDS011;11720;51.214;22.574;2023-02-21T08:58:58;3.93;;;1.00;;
23101;SDS011;11720;51.214;22.574;2023-02-21T09:01:29;2.93;;;0.93;;
23101;SDS011;11720;51.214;22.574;2023-02-21T09:03:59;6.23;;;0.83;;
23101;SDS011;11720;51.214;22.574;2023-02-21T09:06:26;1.10;;;0.90;;
23101;SDS011;11720;51.214;22.574;2023-02-21T09:08:52;2.60;;;1.07;;
23101;SDS011;11720;51.214;22.574;2023-02-21T09:11:19;7.00;;;1.30;;
23101;SDS011;11720;51.214;22.574;2023-02-21T09:13:44;1.10;;;0.67;;
23101;SDS011;11720;51.214;22.574;2023-02-21T09:16:10;5.50;;;0.80;;
23101;SDS011;11720;51.214;22.574;2023-02-21T09:18:36;2.77;;;0.90;;
23101;SDS011;11720;51.214;22.574;2023-02-21T09:21:01;1.90;;;1.03;;
23101;SDS011;11720;51.214;22.574;2023-02-21T09:23:28;4.70;;;1.10;;
23101;SDS011;11720;51.214;22.574;2023-02-21T09:25:54;1.80;;;1.13;;
23101;SDS011;11720;51.214;22.574;2023-02-21T09:28:20;0.70;;;0.70;;
23101;SDS011;11720;51.214;22.574;2023-02-21T09:30:46;0.70;;;0.70;;
23101;SDS011;11720;51.214;22.574;2023-02-21T09:33:13;1.00;;;1.00;;
23101;SDS011;11720;51.214;22.574;2023-02-21T09:35:40;1.47;;;0.90;;
23101;SDS011;11720;51.214;22.574;2023-02-21T09:38:07;1.43;;;1.33;;
23101;SDS011;11720;51.214;22.574;2023-02-21T09:43:17;0.80;;;0.70;;
23101;SDS011;11720;51.214;22.574;2023-02-21T09:45:58;5.50;;;1.20;;
23101;SDS011;11720;51.214;22.574;2023-02-21T09:48:45;4.20;;;0.83;;
23101;SDS011;11720;51.214;22.574;2023-02-21T09:51:12;0.83;;;0.80;;
23101;SDS011;11720;51.214;22.574;2023-02-21T09:53:42;0.80;;;0.67;;
23101;SDS011;11720;51.214;22.574;2023-02-21T09:58:45;1.27;;;0.70;;
23101;SDS011;11720;51.214;22.574;2023-02-21T10:04:43;7.57;;;1.30;;
23101;SDS011;11720;51.214;22.574;2023-02-21T10:10:01;1.17;;;1.17;;
23101;SDS011;11720;51.214;22.574;2023-02-21T10:15:33;1.53;;;0.90;;
23101;SDS011;11720;51.214;22.574;2023-02-21T10:18:18;1.20;;;1.13;;
23101;SDS011;11720;51.214;22.574;2023-02-21T10:20:58;2.97;;;0.77;;
23101;SDS011;11720;51.214;22.574;2023-02-21T10:26:28;1.50;;;0.60;;
23101;SDS011;11720;51.214;22.574;2023-02-21T10:28:58;5.70;;;0.80;;
23101;SDS011;11720;51.214;22.574;2023-02-21T10:31:29;1.10;;;1.00;;
23101;SDS011;11720;51.214;22.574;2023-02-21T10:33:58;0.67;;;0.60;;
23101;SDS011;11720;51.214;22.574;2023-02-21T10:36:24;2.00;;;0.83;;
23101;SDS011;11720;51.214;22.574;2023-02-21T10:39:02;3.63;;;1.10;;
23101;SDS011;11720;51.214;22.574;2023-02-21T10:41:35;4.57;;;1.43;;
23101;SDS011;11720;51.214;22.574;2023-02-21T10:44:15;1.60;;;0.93;;
23101;SDS011;11720;51.214;22.574;2023-02-21T10:46:53;0.43;;;0.43;;
23101;SDS011;11720;51.214;22.574;2023-02-21T10:49:33;0.93;;;0.70;;
23101;SDS011;11720;51.214;22.574;2023-02-21T10:54:35;5.77;;;1.63;;
23101;SDS011;11720;51.214;22.574;2023-02-21T10:57:01;3.47;;;0.80;;
23101;SDS011;11720;51.214;22.574;2023-02-21T10:59:34;1.03;;;0.60;;
23101;SDS011;11720;51.214;22.574;2023-02-21T11:02:03;0.93;;;0.93;;
23101;SDS011;11720;51.214;22.574;2023-02-21T11:04:48;4.73;;;1.07;;
23101;SDS011;11720;51.214;22.574;2023-02-21T11:07:15;0.73;;;0.70;;
23101;SDS011;11720;51.214;22.574;2023-02-21T11:09:41;1.47;;;1.20;;
23101;SDS011;11720;51.214;22.574;2023-02-21T11:14:41;1.10;;;0.77;;
23101;SDS011;11720;51.214;22.574;2023-02-21T11:17:13;2.33;;;0.80;;
23101;SDS011;11720;51.214;22.574;2023-02-21T11:22:15;1.07;;;0.77;;
23101;SDS011;11720;51.214;22.574;2023-02-21T11:25:02;1.03;;;1.00;;
23101;SDS011;11720;51.214;22.574;2023-02-21T11:33:24;0.83;;;0.83;;
23101;SDS011;11720;51.214;22.574;2023-02-21T11:35:51;0.60;;;0.60;;
23101;SDS011;11720;51.214;22.574;2023-02-21T11:38:35;1.37;;;0.77;;
23101;SDS011;11720;51.214;22.574;2023-02-21T11:41:28;0.77;;;0.77;;
23101;SDS011;11720;51.214;22.574;2023-02-21T11:43:56;1.63;;;1.37;;
23101;SDS011;11720;51.214;22.574;2023-02-21T11:46:31;0.77;;;0.77;;
23101;SDS011;11720;51.214;22.574;2023-02-21T11:52:18;0.80;;;0.80;;
23101;SDS011;11720;51.214;22.574;2023-02-21T11:54:48;2.43;;;0.97;;
23101;SDS011;11720;51.214;22.574;2023-02-21T12:31:17;1.60;;;1.10;;
23101;SDS011;11720;51.214;22.574;2023-02-21T12:33:54;1.27;;;1.10;;
23101;SDS011;11720;51.214;22.574;2023-02-21T12:42:04;1.40;;;1.13;;
23101;SDS011;11720;51.214;22.574;2023-02-21T12:44:40;3.13;;;0.80;;
23101;SDS011;11720;51.214;22.574;2023-02-21T12:47:26;6.40;;;2.23;;
23101;SDS011;11720;51.214;22.574;2023-02-21T12:52:35;1.33;;;1.20;;
23101;SDS011;11720;51.214;22.574;2023-02-21T12:55:04;3.03;;;1.40;;
23101;SDS011;11720;51.214;22.574;2023-02-21T13:00:39;3.23;;;1.23;;
23101;SDS011;11720;51.214;22.574;2023-02-21T13:06:44;2.67;;;1.67;;
23101;SDS011;11720;51.214;22.574;2023-02-21T13:09:32;2.67;;;1.20;;
23101;SDS011;11720;51.214;22.574;2023-02-21T13:12:13;8.07;;;1.03;;
23101;SDS011;11720;51.214;22.574;2023-02-21T13:17:40;1.90;;;0.60;;
23101;SDS011;11720;51.214;22.574;2023-02-21T13:20:09;2.30;;;1.10;;
23101;SDS011;11720;51.214;22.574;2023-02-21T13:28:59;2.73;;;1.20;;
23101;SDS011;11720;51.214;22.574;2023-02-21T13:31:25;2.83;;;1.43;;
23101;SDS011;11720;51.214;22.574;2023-02-21T13:33:59;3.92;;;1.13;;
23101;SDS011;11720;51.214;22.574;2023-02-21T13:41:49;2.83;;;1.60;;
23101;SDS011;11720;51.214;22.574;2023-02-21T13:47:28;3.23;;;0.90;;
23101;SDS011;11720;51.214;22.574;2023-02-21T13:55:37;2.47;;;1.10;;
23101;SDS011;11720;51.214;22.574;2023-02-21T14:05:26;4.13;;;2.00;;
23101;SDS011;11720;51.214;22.574;2023-02-21T14:08:22;3.13;;;1.10;;
23101;SDS011;11720;51.214;22.574;2023-02-21T14:11:36;1.80;;;1.23;;
23101;SDS011;11720;51.214;22.574;2023-02-21T14:13:51;2.90;;;1.10;;
23101;SDS011;11720;51.214;22.574;2023-02-21T14:16:24;4.77;;;1.53;;
23101;SDS011;11720;51.214;22.574;2023-02-21T14:21:48;3.83;;;1.00;;
23101;SDS011;11720;51.214;22.574;2023-02-21T14:24:21;2.67;;;1.67;;
23101;SDS011;11720;51.214;22.574;2023-02-21T14:34:32;2.43;;;1.27;;
23101;SDS011;11720;51.214;22.574;2023-02-21T14:37:05;2.77;;;1.30;;
23101;SDS011;11720;51.214;22.574;2023-02-21T14:42:58;4.23;;;1.77;;
23101;SDS011;11720;51.214;22.574;2023-02-21T14:45:43;0.70;;;0.70;;
23101;SDS011;11720;51.214;22.574;2023-02-21T14:59:26;8.00;;;1.90;;
23101;SDS011;11720;51.214;22.574;2023-02-21T15:02:29;4.07;;;2.10;;
23101;SDS011;11720;51.214;22.574;2023-02-21T15:05:24;4.47;;;1.47;;
23101;SDS011;11720;51.214;22.574;2023-02-21T15:10:44;4.63;;;1.60;;
23101;SDS011;11720;51.214;22.574;2023-02-21T15:13:28;5.33;;;1.60;;
23101;SDS011;11720;51.214;22.574;2023-02-21T15:15:56;6.67;;;1.20;;
23101;SDS011;11720;51.214;22.574;2023-02-21T15:18:28;3.80;;;2.07;;
23101;SDS011;11720;51.214;22.574;2023-02-21T15:23:29;5.60;;;1.63;;
23101;SDS011;11720;51.214;22.574;2023-02-21T15:25:56;2.63;;;1.50;;
23101;SDS011;11720;51.214;22.574;2023-02-21T15:28:24;3.93;;;1.80;;
23101;SDS011;11720;51.214;22.574;2023-02-21T15:31:02;3.87;;;1.73;;
23101;SDS011;11720;51.214;22.574;2023-02-21T15:33:37;3.47;;;1.50;;
23101;SDS011;11720;51.214;22.574;2023-02-21T15:36:22;2.57;;;1.60;;
23101;SDS011;11720;51.214;22.574;2023-02-21T15:38:49;5.17;;;1.40;;
23101;SDS011;11720;51.214;22.574;2023-02-21T15:41:30;3.53;;;1.50;;
23101;SDS011;11720;51.214;22.574;2023-02-21T15:44:12;2.00;;;1.17;;
23101;SDS011;11720;51.214;22.574;2023-02-21T15:46:57;6.73;;;1.30;;
23101;SDS011;11720;51.214;22.574;2023-02-21T15:49:51;1.90;;;1.63;;
23101;SDS011;11720;51.214;22.574;2023-02-21T15:52:44;3.13;;;1.60;;
23101;SDS011;11720;51.214;22.574;2023-02-21T15:58:01;4.37;;;1.20;;
23101;SDS011;11720;51.214;22.574;2023-02-21T16:00:34;2.83;;;1.30;;
23101;SDS011;11720;51.214;22.574;2023-02-21T16:05:52;1.63;;;1.43;;
23101;SDS011;11720;51.214;22.574;2023-02-21T16:08:33;6.40;;;1.70;;
23101;SDS011;11720;51.214;22.574;2023-02-21T16:11:01;4.60;;;2.10;;
23101;SDS011;11720;51.214;22.574;2023-02-21T16:13:35;4.93;;;2.10;;
23101;SDS011;11720;51.214;22.574;2023-02-21T16:16:05;10.27;;;2.37;;
23101;SDS011;11720;51.214;22.574;2023-02-21T16:18:32;5.27;;;2.80;;
23101;SDS011;11720;51.214;22.574;2023-02-21T16:21:03;3.40;;;2.30;;
23101;SDS011;11720;51.214;22.574;2023-02-21T16:23:32;3.97;;;2.30;;
23101;SDS011;11720;51.214;22.574;2023-02-21T16:28:36;10.67;;;2.70;;
23101;SDS011;11720;51.214;22.574;2023-02-21T16:31:04;3.60;;;1.63;;
23101;SDS011;11720;51.214;22.574;2023-02-21T16:33:32;3.80;;;2.27;;
23101;SDS011;11720;51.214;22.574;2023-02-21T16:35:59;5.23;;;2.40;;
23101;SDS011;11720;51.214;22.574;2023-02-21T16:38:29;7.00;;;2.43;;
23101;SDS011;11720;51.214;22.574;2023-02-21T16:40:54;9.40;;;3.17;;
23101;SDS011;11720;51.214;22.574;2023-02-21T16:43:29;5.07;;;1.83;;
23101;SDS011;11720;51.214;22.574;2023-02-21T16:45:55;3.73;;;1.77;;
23101;SDS011;11720;51.214;22.574;2023-02-21T16:48:23;8.10;;;2.73;;
23101;SDS011;11720;51.214;22.574;2023-02-21T16:50:53;1.40;;;1.30;;
23101;SDS011;11720;51.214;22.574;2023-02-21T16:53:20;9.83;;;3.20;;
23101;SDS011;11720;51.214;22.574;2023-02-21T16:55:46;6.90;;;2.87;;
23101;SDS011;11720;51.214;22.574;2023-02-21T16:58:24;7.50;;;3.17;;
23101;SDS011;11720;51.214;22.574;2023-02-21T17:01:04;5.80;;;2.33;;
23101;SDS011;11720;51.214;22.574;2023-02-21T17:03:42;5.17;;;2.80;;
23101;SDS011;11720;51.214;22.574;2023-02-21T17:06:13;3.83;;;2.03;;
23101;SDS011;11720;51.214;22.574;2023-02-21T17:08:42;9.97;;;4.00;;
23101;SDS011;11720;51.214;22.574;2023-02-21T17:11:10;10.53;;;2.77;;
23101;SDS011;11720;51.214;22.574;2023-02-21T17:13:36;3.33;;;3.00;;
23101;SDS011;11720;51.214;22.574;2023-02-21T17:16:02;5.67;;;3.20;;
23101;SDS011;11720;51.214;22.574;2023-02-21T17:18:28;3.23;;;1.80;;
23101;SDS011;11720;51.214;22.574;2023-02-21T17:20:55;6.47;;;2.00;;
23101;SDS011;11720;51.214;22.574;2023-02-21T17:23:22;5.93;;;2.87;;
23101;SDS011;11720;51.214;22.574;2023-02-21T17:25:47;6.90;;;2.47;;
23101;SDS011;11720;51.214;22.574;2023-02-21T17:28:13;4.77;;;2.43;;
23101;SDS011;11720;51.214;22.574;2023-02-21T17:30:39;3.57;;;1.77;;
23101;SDS011;11720;51.214;22.574;2023-02-21T17:33:04;1.43;;;1.33;;
23101;SDS011;11720;51.214;22.574;2023-02-21T17:35:32;4.23;;;1.30;;
23101;SDS011;11720;51.214;22.574;2023-02-21T17:37:58;4.93;;;1.93;;
23101;SDS011;11720;51.214;22.574;2023-02-21T17:40:27;7.43;;;2.90;;
23101;SDS011;11720;51.214;22.574;2023-02-21T17:42:53;7.00;;;3.13;;
23101;SDS011;11720;51.214;22.574;2023-02-21T17:45:19;3.93;;;1.73;;
23101;SDS011;11720;51.214;22.574;2023-02-21T17:47:49;4.73;;;2.40;;
23101;SDS011;11720;51.214;22.574;2023-02-21T17:50:16;3.90;;;1.90;;
23101;SDS011;11720;51.214;22.574;2023-02-21T17:52:43;20.87;;;2.13;;
23101;SDS011;11720;51.214;22.574;2023-02-21T17:55:09;14.47;;;2.47;;
23101;SDS011;11720;51.214;22.574;2023-02-21T17:57:41;5.73;;;2.47;;
23101;SDS011;11720;51.214;22.574;2023-02-21T18:00:09;6.23;;;1.67;;
23101;SDS011;11720;51.214;22.574;2023-02-21T18:02:39;5.83;;;2.20;;
23101;SDS011;11720;51.214;22.574;2023-02-21T18:05:05;3.47;;;2.27;;
23101;SDS011;11720;51.214;22.574;2023-02-21T18:07:32;6.03;;;2.73;;
23101;SDS011;11720;51.214;22.574;2023-02-21T18:09:59;4.53;;;1.93;;